sensor_id;sensor_type;location;lat;lon;timestamp;temperature;humidity
37446;DHT22;23307;51.136;14.942;2024-03-06T00:01:11;4.90;99.90
37446;DHT22;23307;51.136;14.942;2024-03-06T00:03:37;4.80;99.90
37446;DHT22;23307;51.136;14.942;2024-03-06T00:06:02;4.60;99.90
37446;DHT22;23307;51.136;14.942;2024-03-06T00:08:28;4.60;99.90
37446;DHT22;23307;51.136;14.942;2024-03-06T00:10:53;4.50;99.90
37446;DHT22;23307;51.136;14.942;2024-03-06T00:13:19;4.40;99.90
37446;DHT22;23307;51.136;14.942;2024-03-06T00:15:45;4.40;99.90
37446;DHT22;23307;51.136;14.942;2024-03-06T00:18:11;4.50;99.90
37446;DHT22;23307;51.136;14.942;2024-03-06T00:20:37;4.50;99.90
37446;DHT22;23307;51.136;14.942;2024-03-06T00:23:03;4.50;99.90
37446;DHT22;23307;51.136;14.942;2024-03-06T00:25:28;4.50;99.90
37446;DHT22;23307;51.136;14.942;2024-03-06T00:27:53;4.50;99.90
37446;DHT22;23307;51.136;14.942;2024-03-06T00:30:19;4.50;99.90
37446;DHT22;23307;51.136;14.942;2024-03-06T00:32:45;4.50;99.90
37446;DHT22;23307;51.136;14.942;2024-03-06T00:35:10;4.50;99.90
37446;DHT22;23307;51.136;14.942;2024-03-06T00:37:37;4.50;99.90
37446;DHT22;23307;51.136;14.942;2024-03-06T00:40:02;4.50;99.90
37446;DHT22;23307;51.136;14.942;2024-03-06T00:42:29;4.50;99.90
37446;DHT22;23307;51.136;14.942;2024-03-06T00:44:54;4.50;99.90
37446;DHT22;23307;51.136;14.942;2024-03-06T00:47:19;4.50;99.90
37446;DHT22;23307;51.136;14.942;2024-03-06T00:49:46;4.50;99.90
37446;DHT22;23307;51.136;14.942;2024-03-06T00:52:12;4.50;99.90
37446;DHT22;23307;51.136;14.942;2024-03-06T00:54:37;4.40;99.90
37446;DHT22;23307;51.136;14.942;2024-03-06T00:57:03;4.40;99.90
37446;DHT22;23307;51.136;14.942;2024-03-06T00:59:29;4.40;99.90
37446;DHT22;23307;51.136;14.942;2024-03-06T01:01:54;4.30;99.90
37446;DHT22;23307;51.136;14.942;2024-03-06T01:04:22;4.30;99.90
37446;DHT22;23307;51.136;14.942;2024-03-06T01:06:47;4.20;99.90
37446;DHT22;23307;51.136;14.942;2024-03-06T01:09:13;4.20;99.90
37446;DHT22;23307;51.136;14.942;2024-03-06T01:11:38;4.10;99.90
37446;DHT22;23307;51.136;14.942;2024-03-06T01:14:05;4.10;99.90
37446;DHT22;23307;51.136;14.942;2024-03-06T01:16:30;4.00;99.90
37446;DHT22;23307;51.136;14.942;2024-03-06T01:18:56;4.00;99.90
37446;DHT22;23307;51.136;14.942;2024-03-06T01:21:21;4.00;99.90
37446;DHT22;23307;51.136;14.942;2024-03-06T01:23:46;4.00;99.90
37446;DHT22;23307;51.136;14.942;2024-03-06T01:26:12;4.00;99.90
37446;DHT22;23307;51.136;14.942;2024-03-06T01:28:37;4.00;99.90
37446;DHT22;23307;51.136;14.942;2024-03-06T01:31:03;4.00;99.90
37446;DHT22;23307;51.136;14.942;2024-03-06T01:33:29;4.00;99.90
37446;DHT22;23307;51.136;14.942;2024-03-06T01:35:54;4.00;99.90
37446;DHT22;23307;51.136;14.942;2024-03-06T01:38:19;4.10;99.90
37446;DHT22;23307;51.136;14.942;2024-03-06T01:40:45;4.10;99.90
37446;DHT22;23307;51.136;14.942;2024-03-06T01:43:21;4.10;99.90
37446;DHT22;23307;51.136;14.942;2024-03-06T01:45:48;4.10;99.90
37446;DHT22;23307;51.136;14.942;2024-03-06T01:48:14;4.20;99.90
37446;DHT22;23307;51.136;14.942;2024-03-06T01:50:41;4.30;99.90
37446;DHT22;23307;51.136;14.942;2024-03-06T01:53:07;4.30;99.90
37446;DHT22;23307;51.136;14.942;2024-03-06T01:55:33;4.40;99.90
37446;DHT22;23307;51.136;14.942;2024-03-06T01:57:58;4.50;99.90
37446;DHT22;23307;51.136;14.942;2024-03-06T02:00:24;4.50;99.90
37446;DHT22;23307;51.136;14.942;2024-03-06T02:02:50;4.50;99.90
37446;DHT22;23307;51.136;14.942;2024-03-06T02:05:15;4.50;99.90
37446;DHT22;23307;51.136;14.942;2024-03-06T02:07:43;4.50;99.90
37446;DHT22;23307;51.136;14.942;2024-03-06T02:10:09;4.50;99.90
37446;DHT22;23307;51.136;14.942;2024-03-06T02:12:36;4.50;99.90
37446;DHT22;23307;51.136;14.942;2024-03-06T02:15:02;4.50;99.90
37446;DHT22;23307;51.136;14.942;2024-03-06T02:17:28;4.40;99.90
37446;DHT22;23307;51.136;14.942;2024-03-06T02:19:55;4.30;99.90
37446;DHT22;23307;51.136;14.942;2024-03-06T02:22:21;4.30;99.90
37446;DHT22;23307;51.136;14.942;2024-03-06T02:24:48;4.40;99.90
37446;DHT22;23307;51.136;14.942;2024-03-06T02:27:13;4.30;99.90
37446;DHT22;23307;51.136;14.942;2024-03-06T02:29:39;4.40;99.90
37446;DHT22;23307;51.136;14.942;2024-03-06T02:32:05;4.40;99.90
37446;DHT22;23307;51.136;14.942;2024-03-06T02:34:30;4.40;99.90
37446;DHT22;23307;51.136;14.942;2024-03-06T02:36:56;4.40;99.90
37446;DHT22;23307;51.136;14.942;2024-03-06T02:39:22;4.50;99.90
37446;DHT22;23307;51.136;14.942;2024-03-06T02:41:47;4.50;99.90
37446;DHT22;23307;51.136;14.942;2024-03-06T02:44:13;4.50;99.90
37446;DHT22;23307;51.136;14.942;2024-03-06T02:46:39;4.50;99.90
37446;DHT22;23307;51.136;14.942;2024-03-06T02:49:04;4.50;99.90
37446;DHT22;23307;51.136;14.942;2024-03-06T02:51:31;4.50;99.90
37446;DHT22;23307;51.136;14.942;2024-03-06T02:53:57;4.50;99.90
37446;DHT22;23307;51.136;14.942;2024-03-06T02:56:22;4.50;99.90
37446;DHT22;23307;51.136;14.942;2024-03-06T02:58:48;4.40;99.90
37446;DHT22;23307;51.136;14.942;2024-03-06T03:01:14;4.30;99.90
37446;DHT22;23307;51.136;14.942;2024-03-06T03:03:43;4.20;99.90
37446;DHT22;23307;51.136;14.942;2024-03-06T03:06:10;4.10;99.90
37446;DHT22;23307;51.136;14.942;2024-03-06T03:08:38;4.00;99.90
37446;DHT22;23307;51.136;14.942;2024-03-06T03:11:04;4.00;99.90
37446;DHT22;23307;51.136;14.942;2024-03-06T03:13:30;4.00;99.90
37446;DHT22;23307;51.136;14.942;2024-03-06T03:15:56;4.00;99.90
37446;DHT22;23307;51.136;14.942;2024-03-06T03:18:22;4.00;99.90
37446;DHT22;23307;51.136;14.942;2024-03-06T03:20:47;4.00;99.90
37446;DHT22;23307;51.136;14.942;2024-03-06T03:23:12;4.00;99.90
37446;DHT22;23307;51.136;14.942;2024-03-06T03:25:40;4.00;99.90
37446;DHT22;23307;51.136;14.942;2024-03-06T03:28:06;4.00;99.90
37446;DHT22;23307;51.136;14.942;2024-03-06T03:30:32;4.00;99.90
37446;DHT22;23307;51.136;14.942;2024-03-06T03:32:58;3.90;99.90
37446;DHT22;23307;51.136;14.942;2024-03-06T03:35:23;3.80;99.90
37446;DHT22;23307;51.136;14.942;2024-03-06T03:37:51;3.80;99.90
37446;DHT22;23307;51.136;14.942;2024-03-06T03:40:17;3.70;99.90
37446;DHT22;23307;51.136;14.942;2024-03-06T03:42:44;3.70;99.90
37446;DHT22;23307;51.136;14.942;2024-03-06T03:45:09;3.70;99.90
37446;DHT22;23307;51.136;14.942;2024-03-06T03:47:35;3.70;99.90
37446;DHT22;23307;51.136;14.942;2024-03-06T03:50:00;3.70;99.90
37446;DHT22;23307;51.136;14.942;2024-03-06T03:52:26;3.70;99.90
37446;DHT22;23307;51.136;14.942;2024-03-06T03:54:51;3.70;99.90
37446;DHT22;23307;51.136;14.942;2024-03-06T03:57:17;3.80;99.90
37446;DHT22;23307;51.136;14.942;2024-03-06T03:59:43;3.80;99.90
37446;DHT22;23307;51.136;14.942;2024-03-06T04:02:08;3.80;99.90
37446;DHT22;23307;51.136;14.942;2024-03-06T04:04:34;3.80;99.90
37446;DHT22;23307;51.136;14.942;2024-03-06T04:07:00;3.80;99.90
37446;DHT22;23307;51.136;14.942;2024-03-06T04:09:27;3.80;99.90
37446;DHT22;23307;51.136;14.942;2024-03-06T04:11:53;3.80;99.90
37446;DHT22;23307;51.136;14.942;2024-03-06T04:14:18;3.80;99.90
37446;DHT22;23307;51.136;14.942;2024-03-06T04:16:46;3.80;99.90
37446;DHT22;23307;51.136;14.942;2024-03-06T04:19:11;3.70;99.90
37446;DHT22;23307;51.136;14.942;2024-03-06T04:21:43;3.60;99.90
37446;DHT22;23307;51.136;14.942;2024-03-06T04:24:08;3.60;99.90
37446;DHT22;23307;51.136;14.942;2024-03-06T04:26:34;3.60;99.90
37446;DHT22;23307;51.136;14.942;2024-03-06T04:29:00;3.60;99.90
37446;DHT22;23307;51.136;14.942;2024-03-06T04:31:25;3.60;99.90
37446;DHT22;23307;51.136;14.942;2024-03-06T04:33:51;3.50;99.90
37446;DHT22;23307;51.136;14.942;2024-03-06T04:36:17;3.50;99.90
37446;DHT22;23307;51.136;14.942;2024-03-06T04:38:42;3.50;99.90
37446;DHT22;23307;51.136;14.942;2024-03-06T04:41:08;3.50;99.90
37446;DHT22;23307;51.136;14.942;2024-03-06T04:43:34;3.50;99.90
37446;DHT22;23307;51.136;14.942;2024-03-06T04:46:00;3.50;99.90
37446;DHT22;23307;51.136;14.942;2024-03-06T04:48:25;3.40;99.90
37446;DHT22;23307;51.136;14.942;2024-03-06T04:50:51;3.30;99.90
37446;DHT22;23307;51.136;14.942;2024-03-06T04:53:16;3.30;99.90
37446;DHT22;23307;51.136;14.942;2024-03-06T04:55:42;3.30;99.90
37446;DHT22;23307;51.136;14.942;2024-03-06T04:58:07;3.20;99.90
37446;DHT22;23307;51.136;14.942;2024-03-06T05:00:33;3.20;99.90
37446;DHT22;23307;51.136;14.942;2024-03-06T05:02:59;3.20;99.90
37446;DHT22;23307;51.136;14.942;2024-03-06T05:05:25;3.20;99.90
37446;DHT22;23307;51.136;14.942;2024-03-06T05:07:51;3.20;99.90
37446;DHT22;23307;51.136;14.942;2024-03-06T05:10:17;3.20;99.90
37446;DHT22;23307;51.136;14.942;2024-03-06T05:12:42;3.20;99.90
37446;DHT22;23307;51.136;14.942;2024-03-06T05:15:10;3.10;99.90
37446;DHT22;23307;51.136;14.942;2024-03-06T05:17:35;3.10;99.90
37446;DHT22;23307;51.136;14.942;2024-03-06T05:20:01;3.10;99.90
37446;DHT22;23307;51.136;14.942;2024-03-06T05:22:29;3.10;99.90
37446;DHT22;23307;51.136;14.942;2024-03-06T05:24:54;3.10;99.90
37446;DHT22;23307;51.136;14.942;2024-03-06T05:27:20;3.10;99.90
37446;DHT22;23307;51.136;14.942;2024-03-06T05:29:46;3.10;99.90
37446;DHT22;23307;51.136;14.942;2024-03-06T05:32:11;3.10;99.90
37446;DHT22;23307;51.136;14.942;2024-03-06T05:34:37;3.10;99.90
37446;DHT22;23307;51.136;14.942;2024-03-06T05:37:03;3.10;99.90
37446;DHT22;23307;51.136;14.942;2024-03-06T05:39:30;3.10;99.90
37446;DHT22;23307;51.136;14.942;2024-03-06T05:42:03;3.10;99.90
37446;DHT22;23307;51.136;14.942;2024-03-06T05:44:29;3.10;99.90
37446;DHT22;23307;51.136;14.942;2024-03-06T05:46:55;3.10;99.90
37446;DHT22;23307;51.136;14.942;2024-03-06T05:49:21;3.10;99.90
37446;DHT22;23307;51.136;14.942;2024-03-06T05:51:47;3.20;99.90
37446;DHT22;23307;51.136;14.942;2024-03-06T05:54:12;3.20;99.90
37446;DHT22;23307;51.136;14.942;2024-03-06T05:56:37;3.10;99.90
37446;DHT22;23307;51.136;14.942;2024-03-06T05:59:04;3.10;99.90
37446;DHT22;23307;51.136;14.942;2024-03-06T06:01:33;3.10;99.90
37446;DHT22;23307;51.136;14.942;2024-03-06T06:03:59;3.10;99.90
37446;DHT22;23307;51.136;14.942;2024-03-06T06:06:26;3.10;99.90
37446;DHT22;23307;51.136;14.942;2024-03-06T06:08:51;3.00;99.90
37446;DHT22;23307;51.136;14.942;2024-03-06T06:11:17;3.00;99.90
37446;DHT22;23307;51.136;14.942;2024-03-06T06:13:42;2.90;99.90
37446;DHT22;23307;51.136;14.942;2024-03-06T06:16:08;2.90;99.90
37446;DHT22;23307;51.136;14.942;2024-03-06T06:18:33;2.90;99.90
37446;DHT22;23307;51.136;14.942;2024-03-06T06:20:59;2.90;99.90
37446;DHT22;23307;51.136;14.942;2024-03-06T06:23:25;2.80;99.90
37446;DHT22;23307;51.136;14.942;2024-03-06T06:25:51;2.80;99.90
37446;DHT22;23307;51.136;14.942;2024-03-06T06:28:16;2.90;99.90
37446;DHT22;23307;51.136;14.942;2024-03-06T06:30:42;2.90;99.90
37446;DHT22;23307;51.136;14.942;2024-03-06T06:33:07;3.00;99.90
37446;DHT22;23307;51.136;14.942;2024-03-06T06:35:34;3.00;99.90
37446;DHT22;23307;51.136;14.942;2024-03-06T06:38:00;3.20;99.90
37446;DHT22;23307;51.136;14.942;2024-03-06T06:40:26;3.20;99.90
37446;DHT22;23307;51.136;14.942;2024-03-06T06:42:53;3.30;99.90
37446;DHT22;23307;51.136;14.942;2024-03-06T06:45:19;3.20;99.90
37446;DHT22;23307;51.136;14.942;2024-03-06T06:47:45;3.30;99.90
37446;DHT22;23307;51.136;14.942;2024-03-06T06:50:11;3.30;99.90
37446;DHT22;23307;51.136;14.942;2024-03-06T06:52:38;3.40;99.90
37446;DHT22;23307;51.136;14.942;2024-03-06T06:55:04;3.40;99.90
37446;DHT22;23307;51.136;14.942;2024-03-06T06:57:30;3.50;99.90
37446;DHT22;23307;51.136;14.942;2024-03-06T06:59:55;3.50;99.90
37446;DHT22;23307;51.136;14.942;2024-03-06T07:02:21;3.50;99.90
37446;DHT22;23307;51.136;14.942;2024-03-06T07:04:47;3.60;99.90
37446;DHT22;23307;51.136;14.942;2024-03-06T07:07:14;3.60;99.90
37446;DHT22;23307;51.136;14.942;2024-03-06T07:09:39;3.70;99.90
37446;DHT22;23307;51.136;14.942;2024-03-06T07:12:05;3.70;99.90
37446;DHT22;23307;51.136;14.942;2024-03-06T07:14:31;3.80;99.90
37446;DHT22;23307;51.136;14.942;2024-03-06T07:16:56;3.80;99.90
37446;DHT22;23307;51.136;14.942;2024-03-06T07:19:22;3.80;99.90
37446;DHT22;23307;51.136;14.942;2024-03-06T07:21:47;3.90;99.90
37446;DHT22;23307;51.136;14.942;2024-03-06T07:24:12;4.00;99.90
37446;DHT22;23307;51.136;14.942;2024-03-06T07:26:38;4.00;99.90
37446;DHT22;23307;51.136;14.942;2024-03-06T07:29:03;4.00;99.90
37446;DHT22;23307;51.136;14.942;2024-03-06T07:31:29;4.00;99.90
37446;DHT22;23307;51.136;14.942;2024-03-06T07:33:55;4.00;99.90
37446;DHT22;23307;51.136;14.942;2024-03-06T07:36:21;4.10;99.90
37446;DHT22;23307;51.136;14.942;2024-03-06T07:38:47;4.20;99.90
37446;DHT22;23307;51.136;14.942;2024-03-06T07:41:12;4.20;99.90
37446;DHT22;23307;51.136;14.942;2024-03-06T07:43:38;4.20;99.90
37446;DHT22;23307;51.136;14.942;2024-03-06T07:46:04;4.30;99.90
37446;DHT22;23307;51.136;14.942;2024-03-06T07:48:36;4.40;99.90
37446;DHT22;23307;51.136;14.942;2024-03-06T07:51:02;4.40;99.90
37446;DHT22;23307;51.136;14.942;2024-03-06T07:53:28;4.40;99.90
37446;DHT22;23307;51.136;14.942;2024-03-06T07:55:53;4.50;99.90
37446;DHT22;23307;51.136;14.942;2024-03-06T07:58:19;4.50;99.90
37446;DHT22;23307;51.136;14.942;2024-03-06T08:00:46;4.60;99.90
37446;DHT22;23307;51.136;14.942;2024-03-06T08:03:12;4.70;99.90
37446;DHT22;23307;51.136;14.942;2024-03-06T08:05:39;4.70;99.90
37446;DHT22;23307;51.136;14.942;2024-03-06T08:08:04;4.70;99.90
37446;DHT22;23307;51.136;14.942;2024-03-06T08:10:30;4.70;99.90
37446;DHT22;23307;51.136;14.942;2024-03-06T08:12:56;4.80;99.90
37446;DHT22;23307;51.136;14.942;2024-03-06T08:15:22;4.80;99.90
37446;DHT22;23307;51.136;14.942;2024-03-06T08:17:48;4.80;99.90
37446;DHT22;23307;51.136;14.942;2024-03-06T08:20:14;4.90;99.90
37446;DHT22;23307;51.136;14.942;2024-03-06T08:22:41;4.90;99.90
37446;DHT22;23307;51.136;14.942;2024-03-06T08:25:11;4.90;99.90
37446;DHT22;23307;51.136;14.942;2024-03-06T08:27:39;4.90;99.90
37446;DHT22;23307;51.136;14.942;2024-03-06T08:30:06;4.90;99.90
37446;DHT22;23307;51.136;14.942;2024-03-06T08:32:35;4.90;99.90
37446;DHT22;23307;51.136;14.942;2024-03-06T08:35:12;4.90;99.90
37446;DHT22;23307;51.136;14.942;2024-03-06T08:37:38;4.90;99.90
37446;DHT22;23307;51.136;14.942;2024-03-06T08:40:05;4.90;99.90
37446;DHT22;23307;51.136;14.942;2024-03-06T08:42:30;5.00;99.90
37446;DHT22;23307;51.136;14.942;2024-03-06T08:44:56;5.10;99.90
37446;DHT22;23307;51.136;14.942;2024-03-06T08:47:22;5.10;99.90
37446;DHT22;23307;51.136;14.942;2024-03-06T08:49:47;5.00;99.90
37446;DHT22;23307;51.136;14.942;2024-03-06T08:52:13;5.00;99.90
37446;DHT22;23307;51.136;14.942;2024-03-06T08:54:40;5.00;99.90
37446;DHT22;23307;51.136;14.942;2024-03-06T08:57:07;5.10;99.90
37446;DHT22;23307;51.136;14.942;2024-03-06T08:59:34;5.10;99.90
37446;DHT22;23307;51.136;14.942;2024-03-06T09:02:18;5.20;99.90
37446;DHT22;23307;51.136;14.942;2024-03-06T09:04:45;5.20;99.90
37446;DHT22;23307;51.136;14.942;2024-03-06T09:07:11;5.20;99.90
37446;DHT22;23307;51.136;14.942;2024-03-06T09:09:38;5.30;99.90
37446;DHT22;23307;51.136;14.942;2024-03-06T09:12:07;5.30;99.90
37446;DHT22;23307;51.136;14.942;2024-03-06T09:14:36;5.30;99.90
37446;DHT22;23307;51.136;14.942;2024-03-06T09:17:01;5.40;99.90
37446;DHT22;23307;51.136;14.942;2024-03-06T09:19:27;5.40;99.90
37446;DHT22;23307;51.136;14.942;2024-03-06T09:21:53;5.40;99.90
37446;DHT22;23307;51.136;14.942;2024-03-06T09:24:21;5.40;99.90
37446;DHT22;23307;51.136;14.942;2024-03-06T09:26:48;5.40;99.90
37446;DHT22;23307;51.136;14.942;2024-03-06T09:29:13;5.50;99.90
37446;DHT22;23307;51.136;14.942;2024-03-06T09:31:39;5.50;99.90
37446;DHT22;23307;51.136;14.942;2024-03-06T09:34:04;5.50;99.90
37446;DHT22;23307;51.136;14.942;2024-03-06T09:36:30;5.60;99.90
37446;DHT22;23307;51.136;14.942;2024-03-06T09:38:58;5.60;99.90
37446;DHT22;23307;51.136;14.942;2024-03-06T09:41:24;5.50;99.90
37446;DHT22;23307;51.136;14.942;2024-03-06T09:43:50;5.40;99.90
37446;DHT22;23307;51.136;14.942;2024-03-06T09:46:15;5.40;99.90
37446;DHT22;23307;51.136;14.942;2024-03-06T09:48:49;5.40;99.90
37446;DHT22;23307;51.136;14.942;2024-03-06T09:51:16;5.50;99.90
37446;DHT22;23307;51.136;14.942;2024-03-06T09:53:42;5.60;99.90
37446;DHT22;23307;51.136;14.942;2024-03-06T09:56:10;5.70;99.90
37446;DHT22;23307;51.136;14.942;2024-03-06T09:58:36;5.80;99.90
37446;DHT22;23307;51.136;14.942;2024-03-06T10:01:01;5.80;99.90
37446;DHT22;23307;51.136;14.942;2024-03-06T10:03:32;5.90;99.90
37446;DHT22;23307;51.136;14.942;2024-03-06T10:05:58;6.00;99.90
37446;DHT22;23307;51.136;14.942;2024-03-06T10:08:24;6.00;99.90
37446;DHT22;23307;51.136;14.942;2024-03-06T10:10:52;6.00;99.90
37446;DHT22;23307;51.136;14.942;2024-03-06T10:13:18;6.00;99.90
37446;DHT22;23307;51.136;14.942;2024-03-06T10:16:04;5.90;99.90
37446;DHT22;23307;51.136;14.942;2024-03-06T10:18:31;5.90;99.90
37446;DHT22;23307;51.136;14.942;2024-03-06T10:20:57;5.90;99.90
37446;DHT22;23307;51.136;14.942;2024-03-06T10:23:24;6.00;99.90
37446;DHT22;23307;51.136;14.942;2024-03-06T10:25:50;6.00;99.90
37446;DHT22;23307;51.136;14.942;2024-03-06T10:28:20;6.00;99.90
37446;DHT22;23307;51.136;14.942;2024-03-06T10:30:47;6.10;99.90
37446;DHT22;23307;51.136;14.942;2024-03-06T10:33:14;6.10;99.90
37446;DHT22;23307;51.136;14.942;2024-03-06T10:35:41;6.20;99.90
37446;DHT22;23307;51.136;14.942;2024-03-06T10:38:08;6.20;99.90
37446;DHT22;23307;51.136;14.942;2024-03-06T10:40:38;6.20;99.90
37446;DHT22;23307;51.136;14.942;2024-03-06T10:43:05;6.20;99.90
37446;DHT22;23307;51.136;14.942;2024-03-06T10:45:50;6.20;99.90
37446;DHT22;23307;51.136;14.942;2024-03-06T10:48:18;6.10;99.90
37446;DHT22;23307;51.136;14.942;2024-03-06T10:50:46;6.10;99.90
37446;DHT22;23307;51.136;14.942;2024-03-06T10:53:14;6.10;99.90
37446;DHT22;23307;51.136;14.942;2024-03-06T10:55:42;6.00;99.90
37446;DHT22;23307;51.136;14.942;2024-03-06T10:58:09;6.10;99.90
37446;DHT22;23307;51.136;14.942;2024-03-06T11:00:39;6.10;99.90
37446;DHT22;23307;51.136;14.942;2024-03-06T11:03:09;6.20;99.90
37446;DHT22;23307;51.136;14.942;2024-03-06T11:05:37;6.20;99.90
37446;DHT22;23307;51.136;14.942;2024-03-06T11:08:06;6.30;99.90
37446;DHT22;23307;51.136;14.942;2024-03-06T11:10:34;6.40;99.90
37446;DHT22;23307;51.136;14.942;2024-03-06T11:13:01;6.40;99.90
37446;DHT22;23307;51.136;14.942;2024-03-06T11:15:27;6.40;99.90
37446;DHT22;23307;51.136;14.942;2024-03-06T11:17:52;6.40;99.90
37446;DHT22;23307;51.136;14.942;2024-03-06T11:20:20;6.30;99.90
37446;DHT22;23307;51.136;14.942;2024-03-06T11:28:22;6.40;99.90
37446;DHT22;23307;51.136;14.942;2024-03-06T11:30:48;6.40;99.90
37446;DHT22;23307;51.136;14.942;2024-03-06T11:33:20;6.40;99.90
37446;DHT22;23307;51.136;14.942;2024-03-06T11:36:17;6.40;99.90
37446;DHT22;23307;51.136;14.942;2024-03-06T11:41:22;6.40;99.90
37446;DHT22;23307;51.136;14.942;2024-03-06T11:43:48;6.50;99.90
37446;DHT22;23307;51.136;14.942;2024-03-06T11:46:16;6.50;99.90
37446;DHT22;23307;51.136;14.942;2024-03-06T11:48:43;6.60;99.90
37446;DHT22;23307;51.136;14.942;2024-03-06T11:51:09;6.70;99.90
37446;DHT22;23307;51.136;14.942;2024-03-06T11:53:34;6.90;99.90
37446;DHT22;23307;51.136;14.942;2024-03-06T11:56:01;7.00;99.90
37446;DHT22;23307;51.136;14.942;2024-03-06T11:58:27;7.00;99.90
37446;DHT22;23307;51.136;14.942;2024-03-06T12:00:54;6.90;99.90
37446;DHT22;23307;51.136;14.942;2024-03-06T12:03:20;6.90;99.90
37446;DHT22;23307;51.136;14.942;2024-03-06T12:05:46;7.00;99.90
37446;DHT22;23307;51.136;14.942;2024-03-06T12:08:12;7.10;99.90
37446;DHT22;23307;51.136;14.942;2024-03-06T12:10:38;7.10;99.90
37446;DHT22;23307;51.136;14.942;2024-03-06T12:13:04;7.10;99.90
37446;DHT22;23307;51.136;14.942;2024-03-06T12:15:30;7.20;99.90
37446;DHT22;23307;51.136;14.942;2024-03-06T12:17:56;7.20;99.90
37446;DHT22;23307;51.136;14.942;2024-03-06T12:20:21;7.30;99.90
37446;DHT22;23307;51.136;14.942;2024-03-06T12:22:53;7.30;99.90
37446;DHT22;23307;51.136;14.942;2024-03-06T12:25:26;7.30;99.90
37446;DHT22;23307;51.136;14.942;2024-03-06T12:27:54;7.20;99.90
37446;DHT22;23307;51.136;14.942;2024-03-06T12:30:23;7.20;99.90
37446;DHT22;23307;51.136;14.942;2024-03-06T12:33:01;7.30;99.90
37446;DHT22;23307;51.136;14.942;2024-03-06T12:35:30;7.40;99.90
37446;DHT22;23307;51.136;14.942;2024-03-06T12:37:56;7.50;99.90
37446;DHT22;23307;51.136;14.942;2024-03-06T12:40:22;7.60;99.90
37446;DHT22;23307;51.136;14.942;2024-03-06T12:42:48;7.60;99.90
37446;DHT22;23307;51.136;14.942;2024-03-06T12:45:15;7.70;99.90
37446;DHT22;23307;51.136;14.942;2024-03-06T12:47:42;7.60;99.90
37446;DHT22;23307;51.136;14.942;2024-03-06T12:50:08;7.70;99.90
37446;DHT22;23307;51.136;14.942;2024-03-06T12:52:35;7.80;99.90
37446;DHT22;23307;51.136;14.942;2024-03-06T12:55:00;7.90;99.90
37446;DHT22;23307;51.136;14.942;2024-03-06T12:57:26;7.80;99.90
37446;DHT22;23307;51.136;14.942;2024-03-06T12:59:53;7.70;99.90
37446;DHT22;23307;51.136;14.942;2024-03-06T13:02:18;7.60;99.90
37446;DHT22;23307;51.136;14.942;2024-03-06T13:04:44;7.70;99.90
37446;DHT22;23307;51.136;14.942;2024-03-06T13:07:10;7.90;99.90
37446;DHT22;23307;51.136;14.942;2024-03-06T13:09:36;7.80;99.90
37446;DHT22;23307;51.136;14.942;2024-03-06T13:12:02;7.70;99.90
37446;DHT22;23307;51.136;14.942;2024-03-06T13:14:27;7.70;99.90
37446;DHT22;23307;51.136;14.942;2024-03-06T13:16:53;7.60;99.90
37446;DHT22;23307;51.136;14.942;2024-03-06T13:19:18;7.50;99.90
37446;DHT22;23307;51.136;14.942;2024-03-06T13:21:44;7.60;99.90
37446;DHT22;23307;51.136;14.942;2024-03-06T13:24:10;7.80;99.90
37446;DHT22;23307;51.136;14.942;2024-03-06T13:26:35;7.80;99.90
37446;DHT22;23307;51.136;14.942;2024-03-06T13:29:03;7.90;99.90
37446;DHT22;23307;51.136;14.942;2024-03-06T13:31:28;8.00;99.90
37446;DHT22;23307;51.136;14.942;2024-03-06T13:33:54;8.00;99.90
37446;DHT22;23307;51.136;14.942;2024-03-06T13:36:19;8.20;99.90
37446;DHT22;23307;51.136;14.942;2024-03-06T13:38:45;8.10;99.90
37446;DHT22;23307;51.136;14.942;2024-03-06T13:41:11;8.30;99.90
37446;DHT22;23307;51.136;14.942;2024-03-06T13:43:36;8.80;99.90
37446;DHT22;23307;51.136;14.942;2024-03-06T13:46:02;9.30;99.90
37446;DHT22;23307;51.136;14.942;2024-03-06T13:48:28;9.40;99.90
37446;DHT22;23307;51.136;14.942;2024-03-06T13:50:53;9.30;99.90
37446;DHT22;23307;51.136;14.942;2024-03-06T13:53:19;9.30;99.90
37446;DHT22;23307;51.136;14.942;2024-03-06T13:55:44;9.10;99.90
37446;DHT22;23307;51.136;14.942;2024-03-06T13:58:10;8.80;99.90
37446;DHT22;23307;51.136;14.942;2024-03-06T14:00:36;8.80;99.90
37446;DHT22;23307;51.136;14.942;2024-03-06T14:03:01;8.80;99.90
37446;DHT22;23307;51.136;14.942;2024-03-06T14:05:27;9.30;99.90
37446;DHT22;23307;51.136;14.942;2024-03-06T14:07:53;9.80;99.90
37446;DHT22;23307;51.136;14.942;2024-03-06T14:10:19;10.20;99.90
37446;DHT22;23307;51.136;14.942;2024-03-06T14:12:47;10.60;99.90
37446;DHT22;23307;51.136;14.942;2024-03-06T14:15:12;10.90;99.90
37446;DHT22;23307;51.136;14.942;2024-03-06T14:17:38;11.20;99.90
37446;DHT22;23307;51.136;14.942;2024-03-06T14:20:04;11.50;99.90
37446;DHT22;23307;51.136;14.942;2024-03-06T14:22:30;11.60;99.90
37446;DHT22;23307;51.136;14.942;2024-03-06T14:24:56;11.70;99.90
37446;DHT22;23307;51.136;14.942;2024-03-06T14:27:21;11.80;99.90
37446;DHT22;23307;51.136;14.942;2024-03-06T14:29:47;11.90;99.90
37446;DHT22;23307;51.136;14.942;2024-03-06T14:32:13;11.90;99.90
37446;DHT22;23307;51.136;14.942;2024-03-06T14:34:39;11.80;99.90
37446;DHT22;23307;51.136;14.942;2024-03-06T14:37:04;11.80;99.90
37446;DHT22;23307;51.136;14.942;2024-03-06T14:39:30;11.90;99.90
37446;DHT22;23307;51.136;14.942;2024-03-06T14:41:55;12.00;99.90
37446;DHT22;23307;51.136;14.942;2024-03-06T14:44:21;12.00;99.90
37446;DHT22;23307;51.136;14.942;2024-03-06T14:46:47;12.10;99.90
37446;DHT22;23307;51.136;14.942;2024-03-06T14:49:12;12.30;99.90
37446;DHT22;23307;51.136;14.942;2024-03-06T14:51:39;12.30;99.90
37446;DHT22;23307;51.136;14.942;2024-03-06T14:54:05;12.30;99.90
37446;DHT22;23307;51.136;14.942;2024-03-06T14:56:30;12.40;99.90
37446;DHT22;23307;51.136;14.942;2024-03-06T14:58:57;12.50;99.90
37446;DHT22;23307;51.136;14.942;2024-03-06T15:01:23;12.50;99.90
37446;DHT22;23307;51.136;14.942;2024-03-06T15:03:50;12.40;99.90
37446;DHT22;23307;51.136;14.942;2024-03-06T15:06:16;12.40;99.90
37446;DHT22;23307;51.136;14.942;2024-03-06T15:08:41;12.20;99.90
37446;DHT22;23307;51.136;14.942;2024-03-06T15:11:10;12.20;99.90
37446;DHT22;23307;51.136;14.942;2024-03-06T15:13:35;11.90;99.90
37446;DHT22;23307;51.136;14.942;2024-03-06T15:16:01;11.70;99.90
37446;DHT22;23307;51.136;14.942;2024-03-06T15:18:29;11.30;99.90
37446;DHT22;23307;51.136;14.942;2024-03-06T15:20:55;11.10;99.90
37446;DHT22;23307;51.136;14.942;2024-03-06T15:23:20;11.10;99.90
37446;DHT22;23307;51.136;14.942;2024-03-06T15:25:46;11.00;99.90
37446;DHT22;23307;51.136;14.942;2024-03-06T15:28:11;10.90;99.90
37446;DHT22;23307;51.136;14.942;2024-03-06T15:30:37;10.80;99.90
37446;DHT22;23307;51.136;14.942;2024-03-06T15:33:06;10.50;99.90